sensor_id;sensor_type;location;lat;lon;timestamp;P1;durP1;ratioP1;P2;durP2;ratioP2
18265;SDS011;9259;48.194;16.322;2022-10-18T00:00:57;26.15;;;14.30;;
18265;SDS011;9259;48.194;16.322;2022-10-18T00:03:25;26.50;;;13.90;;
18265;SDS011;9259;48.194;16.322;2022-10-18T00:05:53;26.40;;;14.77;;
18265;SDS011;9259;48.194;16.322;2022-10-18T00:08:21;26.02;;;14.02;;
18265;SDS011;9259;48.194;16.322;2022-10-18T00:10:49;22.88;;;14.05;;
18265;SDS011;9259;48.194;16.322;2022-10-18T00:13:18;24.00;;;13.32;;
18265;SDS011;9259;48.194;16.322;2022-10-18T00:15:48;22.08;;;12.63;;
18265;SDS011;9259;48.194;16.322;2022-10-18T00:18:17;28.98;;;13.07;;
18265;SDS011;9259;48.194;16.322;2022-10-18T00:20:54;22.08;;;12.77;;
18265;SDS011;9259;48.194;16.322;2022-10-18T00:23:24;22.45;;;12.07;;
18265;SDS011;9259;48.194;16.322;2022-10-18T00:25:59;17.50;;;11.00;;
18265;SDS011;9259;48.194;16.322;2022-10-18T00:28:28;23.40;;;12.23;;
18265;SDS011;9259;48.194;16.322;2022-10-18T00:31:04;22.83;;;12.10;;
18265;SDS011;9259;48.194;16.322;2022-10-18T00:33:36;18.35;;;11.60;;
18265;SDS011;9259;48.194;16.322;2022-10-18T00:36:04;23.95;;;11.80;;
18265;SDS011;9259;48.194;16.322;2022-10-18T00:38:33;21.75;;;12.60;;
18265;SDS011;9259;48.194;16.322;2022-10-18T00:41:01;19.15;;;11.88;;
18265;SDS011;9259;48.194;16.322;2022-10-18T00:43:30;19.70;;;12.75;;
18265;SDS011;9259;48.194;16.322;2022-10-18T00:46:00;23.10;;;12.98;;
18265;SDS011;9259;48.194;16.322;2022-10-18T00:48:28;22.48;;;12.75;;
18265;SDS011;9259;48.194;16.322;2022-10-18T00:50:56;22.25;;;12.65;;
18265;SDS011;9259;48.194;16.322;2022-10-18T00:53:24;30.15;;;13.35;;
18265;SDS011;9259;48.194;16.322;2022-10-18T00:55:52;25.02;;;13.27;;
18265;SDS011;9259;48.194;16.322;2022-10-18T00:58:20;22.85;;;12.70;;
18265;SDS011;9259;48.194;16.322;2022-10-18T01:00:48;17.48;;;11.43;;
18265;SDS011;9259;48.194;16.322;2022-10-18T01:03:18;20.20;;;11.63;;
18265;SDS011;9259;48.194;16.322;2022-10-18T01:05:46;21.42;;;11.30;;
18265;SDS011;9259;48.194;16.322;2022-10-18T01:08:25;20.50;;;11.65;;
18265;SDS011;9259;48.194;16.322;2022-10-18T01:11:02;18.27;;;11.40;;
18265;SDS011;9259;48.194;16.322;2022-10-18T01:13:40;18.10;;;11.07;;
18265;SDS011;9259;48.194;16.322;2022-10-18T01:16:15;16.20;;;10.73;;
18265;SDS011;9259;48.194;16.322;2022-10-18T01:18:54;18.10;;;10.77;;
18265;SDS011;9259;48.194;16.322;2022-10-18T01:21:31;19.45;;;10.40;;
18265;SDS011;9259;48.194;16.322;2022-10-18T01:27:34;19.95;;;11.85;;
18265;SDS011;9259;48.194;16.322;2022-10-18T01:35:59;26.77;;;12.77;;
18265;SDS011;9259;48.194;16.322;2022-10-18T01:38:30;22.00;;;11.90;;
18265;SDS011;9259;48.194;16.322;2022-10-18T01:40:59;24.48;;;12.55;;
18265;SDS011;9259;48.194;16.322;2022-10-18T01:43:28;22.88;;;12.70;;
18265;SDS011;9259;48.194;16.322;2022-10-18T01:45:58;22.95;;;12.88;;
18265;SDS011;9259;48.194;16.322;2022-10-18T01:48:27;23.73;;;12.75;;
18265;SDS011;9259;48.194;16.322;2022-10-18T01:50:55;24.67;;;14.00;;
18265;SDS011;9259;48.194;16.322;2022-10-18T01:53:25;22.83;;;13.77;;
18265;SDS011;9259;48.194;16.322;2022-10-18T01:55:57;27.20;;;14.70;;
18265;SDS011;9259;48.194;16.322;2022-10-18T01:58:41;28.80;;;15.68;;
18265;SDS011;9259;48.194;16.322;2022-10-18T02:01:18;28.85;;;15.88;;
18265;SDS011;9259;48.194;16.322;2022-10-18T02:03:51;27.88;;;15.30;;
18265;SDS011;9259;48.194;16.322;2022-10-18T02:06:24;27.40;;;15.57;;
18265;SDS011;9259;48.194;16.322;2022-10-18T02:08:56;27.73;;;16.00;;
18265;SDS011;9259;48.194;16.322;2022-10-18T02:11:27;22.38;;;14.80;;
18265;SDS011;9259;48.194;16.322;2022-10-18T02:13:57;28.75;;;15.65;;
18265;SDS011;9259;48.194;16.322;2022-10-18T02:16:30;33.20;;;16.25;;
18265;SDS011;9259;48.194;16.322;2022-10-18T02:19:06;25.80;;;16.00;;
18265;SDS011;9259;48.194;16.322;2022-10-18T02:21:36;29.48;;;16.33;;
18265;SDS011;9259;48.194;16.322;2022-10-18T02:24:05;29.33;;;17.17;;
18265;SDS011;9259;48.194;16.322;2022-10-18T02:26:33;28.53;;;17.20;;
18265;SDS011;9259;48.194;16.322;2022-10-18T02:29:02;30.40;;;17.03;;
18265;SDS011;9259;48.194;16.322;2022-10-18T02:31:32;30.27;;;16.65;;
18265;SDS011;9259;48.194;16.322;2022-10-18T02:34:03;31.33;;;17.10;;
18265;SDS011;9259;48.194;16.322;2022-10-18T02:36:36;31.27;;;18.70;;
18265;SDS011;9259;48.194;16.322;2022-10-18T02:39:10;30.77;;;17.63;;
18265;SDS011;9259;48.194;16.322;2022-10-18T02:41:40;27.90;;;17.53;;
18265;SDS011;9259;48.194;16.322;2022-10-18T02:44:08;30.87;;;17.03;;
18265;SDS011;9259;48.194;16.322;2022-10-18T02:46:38;30.60;;;17.57;;
18265;SDS011;9259;48.194;16.322;2022-10-18T02:49:07;28.17;;;17.63;;
18265;SDS011;9259;48.194;16.322;2022-10-18T02:51:35;27.23;;;16.80;;
18265;SDS011;9259;48.194;16.322;2022-10-18T02:54:03;26.40;;;16.57;;
18265;SDS011;9259;48.194;16.322;2022-10-18T02:56:33;25.53;;;15.57;;
18265;SDS011;9259;48.194;16.322;2022-10-18T02:59:01;29.70;;;15.97;;
18265;SDS011;9259;48.194;16.322;2022-10-18T03:01:31;25.87;;;16.03;;
18265;SDS011;9259;48.194;16.322;2022-10-18T03:04:02;27.30;;;15.87;;
18265;SDS011;9259;48.194;16.322;2022-10-18T03:06:30;30.33;;;17.10;;
18265;SDS011;9259;48.194;16.322;2022-10-18T03:09:00;30.47;;;18.27;;
18265;SDS011;9259;48.194;16.322;2022-10-18T03:11:29;29.00;;;17.00;;
18265;SDS011;9259;48.194;16.322;2022-10-18T03:13:57;29.70;;;16.00;;
18265;SDS011;9259;48.194;16.322;2022-10-18T03:16:25;29.57;;;16.67;;
18265;SDS011;9259;48.194;16.322;2022-10-18T03:18:53;31.63;;;16.43;;
18265;SDS011;9259;48.194;16.322;2022-10-18T03:21:22;27.63;;;16.53;;
18265;SDS011;9259;48.194;16.322;2022-10-18T03:23:51;30.50;;;18.07;;
18265;SDS011;9259;48.194;16.322;2022-10-18T03:26:19;31.83;;;19.00;;
18265;SDS011;9259;48.194;16.322;2022-10-18T03:28:47;37.73;;;18.93;;
18265;SDS011;9259;48.194;16.322;2022-10-18T03:31:15;33.83;;;18.43;;
18265;SDS011;9259;48.194;16.322;2022-10-18T03:33:43;30.27;;;17.47;;
18265;SDS011;9259;48.194;16.322;2022-10-18T03:36:11;30.73;;;17.17;;
18265;SDS011;9259;48.194;16.322;2022-10-18T03:38:41;34.07;;;16.83;;
18265;SDS011;9259;48.194;16.322;2022-10-18T03:41:09;29.20;;;17.47;;
18265;SDS011;9259;48.194;16.322;2022-10-18T03:43:37;28.00;;;17.17;;
18265;SDS011;9259;48.194;16.322;2022-10-18T03:46:05;28.33;;;17.60;;
18265;SDS011;9259;48.194;16.322;2022-10-18T03:48:33;29.90;;;17.73;;
18265;SDS011;9259;48.194;16.322;2022-10-18T03:51:01;33.23;;;17.83;;
18265;SDS011;9259;48.194;16.322;2022-10-18T03:53:29;28.37;;;17.37;;
18265;SDS011;9259;48.194;16.322;2022-10-18T03:55:59;30.30;;;17.53;;
18265;SDS011;9259;48.194;16.322;2022-10-18T03:58:27;31.23;;;18.40;;
18265;SDS011;9259;48.194;16.322;2022-10-18T04:00:55;33.13;;;18.10;;
18265;SDS011;9259;48.194;16.322;2022-10-18T04:03:23;32.10;;;18.37;;
18265;SDS011;9259;48.194;16.322;2022-10-18T04:05:51;39.60;;;19.03;;
18265;SDS011;9259;48.194;16.322;2022-10-18T04:08:19;28.37;;;17.53;;
18265;SDS011;9259;48.194;16.322;2022-10-18T04:10:47;30.27;;;17.33;;
18265;SDS011;9259;48.194;16.322;2022-10-18T04:13:18;30.53;;;17.57;;
18265;SDS011;9259;48.194;16.322;2022-10-18T04:15:46;32.67;;;17.60;;
18265;SDS011;9259;48.194;16.322;2022-10-18T04:18:14;32.40;;;17.20;;
18265;SDS011;9259;48.194;16.322;2022-10-18T04:20:42;28.37;;;16.60;;
18265;SDS011;9259;48.194;16.322;2022-10-18T04:23:10;30.40;;;18.07;;
18265;SDS011;9259;48.194;16.322;2022-10-18T04:25:38;32.90;;;18.17;;
18265;SDS011;9259;48.194;16.322;2022-10-18T04:28:06;37.43;;;17.67;;
18265;SDS011;9259;48.194;16.322;2022-10-18T04:30:36;30.73;;;17.73;;
18265;SDS011;9259;48.194;16.322;2022-10-18T04:33:04;36.43;;;18.37;;
18265;SDS011;9259;48.194;16.322;2022-10-18T04:35:32;33.87;;;18.87;;
18265;SDS011;9259;48.194;16.322;2022-10-18T04:38:00;32.17;;;17.83;;
18265;SDS011;9259;48.194;16.322;2022-10-18T04:40:28;34.03;;;18.60;;
18265;SDS011;9259;48.194;16.322;2022-10-18T04:42:56;30.03;;;18.00;;
18265;SDS011;9259;48.194;16.322;2022-10-18T04:45:24;28.77;;;17.27;;
18265;SDS011;9259;48.194;16.322;2022-10-18T04:47:54;34.60;;;17.57;;
18265;SDS011;9259;48.194;16.322;2022-10-18T04:50:22;33.83;;;17.77;;
18265;SDS011;9259;48.194;16.322;2022-10-18T04:52:50;31.30;;;17.30;;
18265;SDS011;9259;48.194;16.322;2022-10-18T04:55:18;28.10;;;16.47;;
18265;SDS011;9259;48.194;16.322;2022-10-18T04:57:47;28.97;;;17.57;;
18265;SDS011;9259;48.194;16.322;2022-10-18T05:00:15;32.07;;;17.07;;
18265;SDS011;9259;48.194;16.322;2022-10-18T05:02:43;25.73;;;15.60;;
18265;SDS011;9259;48.194;16.322;2022-10-18T05:05:13;33.27;;;16.90;;
18265;SDS011;9259;48.194;16.322;2022-10-18T05:07:41;32.30;;;16.10;;
18265;SDS011;9259;48.194;16.322;2022-10-18T05:10:09;31.23;;;15.73;;
18265;SDS011;9259;48.194;16.322;2022-10-18T05:12:37;26.50;;;15.37;;
18265;SDS011;9259;48.194;16.322;2022-10-18T05:15:05;29.03;;;16.50;;
18265;SDS011;9259;48.194;16.322;2022-10-18T05:17:35;24.17;;;15.57;;
18265;SDS011;9259;48.194;16.322;2022-10-18T05:20:03;31.87;;;15.93;;
18265;SDS011;9259;48.194;16.322;2022-10-18T05:22:33;33.60;;;17.40;;
18265;SDS011;9259;48.194;16.322;2022-10-18T05:25:01;36.27;;;18.53;;
18265;SDS011;9259;48.194;16.322;2022-10-18T05:27:29;35.10;;;17.10;;
18265;SDS011;9259;48.194;16.322;2022-10-18T05:29:57;31.97;;;18.50;;
18265;SDS011;9259;48.194;16.322;2022-10-18T05:32:26;35.73;;;19.73;;
18265;SDS011;9259;48.194;16.322;2022-10-18T05:34:54;31.67;;;18.67;;
18265;SDS011;9259;48.194;16.322;2022-10-18T05:37:22;33.83;;;19.20;;
18265;SDS011;9259;48.194;16.322;2022-10-18T05:39:51;33.70;;;17.83;;
18265;SDS011;9259;48.194;16.322;2022-10-18T05:42:19;34.20;;;18.03;;
18265;SDS011;9259;48.194;16.322;2022-10-18T05:44:47;34.67;;;18.43;;
18265;SDS011;9259;48.194;16.322;2022-10-18T05:47:15;50.47;;;19.30;;
18265;SDS011;9259;48.194;16.322;2022-10-18T05:49:43;35.93;;;17.93;;
18265;SDS011;9259;48.194;16.322;2022-10-18T05:52:12;35.40;;;18.33;;
18265;SDS011;9259;48.194;16.322;2022-10-18T05:54:41;32.60;;;17.07;;
18265;SDS011;9259;48.194;16.322;2022-10-18T05:57:11;34.17;;;17.70;;
18265;SDS011;9259;48.194;16.322;2022-10-18T05:59:39;36.60;;;18.40;;
18265;SDS011;9259;48.194;16.322;2022-10-18T06:02:07;29.80;;;17.10;;
18265;SDS011;9259;48.194;16.322;2022-10-18T06:04:36;36.87;;;17.97;;
18265;SDS011;9259;48.194;16.322;2022-10-18T06:07:06;38.83;;;18.47;;
18265;SDS011;9259;48.194;16.322;2022-10-18T06:09:35;33.73;;;17.40;;
18265;SDS011;9259;48.194;16.322;2022-10-18T06:12:04;36.73;;;16.50;;
18265;SDS011;9259;48.194;16.322;2022-10-18T06:14:35;29.63;;;16.60;;
18265;SDS011;9259;48.194;16.322;2022-10-18T06:17:03;30.30;;;16.90;;
18265;SDS011;9259;48.194;16.322;2022-10-18T06:19:31;36.80;;;17.13;;
18265;SDS011;9259;48.194;16.322;2022-10-18T06:21:59;31.53;;;16.20;;
18265;SDS011;9259;48.194;16.322;2022-10-18T06:24:27;29.17;;;16.30;;
18265;SDS011;9259;48.194;16.322;2022-10-18T06:26:55;28.20;;;16.00;;
18265;SDS011;9259;48.194;16.322;2022-10-18T06:29:24;35.80;;;16.33;;
18265;SDS011;9259;48.194;16.322;2022-10-18T06:31:53;33.57;;;14.73;;
18265;SDS011;9259;48.194;16.322;2022-10-18T06:34:21;34.27;;;16.70;;
18265;SDS011;9259;48.194;16.322;2022-10-18T06:36:49;29.90;;;16.87;;
18265;SDS011;9259;48.194;16.322;2022-10-18T06:39:17;28.07;;;15.63;;
18265;SDS011;9259;48.194;16.322;2022-10-18T06:41:45;28.97;;;14.33;;
18265;SDS011;9259;48.194;16.322;2022-10-18T06:44:14;28.57;;;15.77;;
18265;SDS011;9259;48.194;16.322;2022-10-18T06:46:42;28.20;;;15.73;;
18265;SDS011;9259;48.194;16.322;2022-10-18T06:49:13;27.77;;;14.97;;
18265;SDS011;9259;48.194;16.322;2022-10-18T06:51:41;25.73;;;12.65;;
18265;SDS011;9259;48.194;16.322;2022-10-18T06:54:10;28.25;;;12.35;;
18265;SDS011;9259;48.194;16.322;2022-10-18T06:56:39;28.73;;;12.30;;
18265;SDS011;9259;48.194;16.322;2022-10-18T06:59:07;27.35;;;11.63;;
18265;SDS011;9259;48.194;16.322;2022-10-18T07:01:35;23.85;;;11.60;;
18265;SDS011;9259;48.194;16.322;2022-10-18T07:04:03;23.25;;;11.70;;
18265;SDS011;9259;48.194;16.322;2022-10-18T07:06:32;22.63;;;11.07;;
18265;SDS011;9259;48.194;16.322;2022-10-18T07:09:00;27.02;;;12.07;;
18265;SDS011;9259;48.194;16.322;2022-10-18T07:11:28;27.27;;;12.05;;
18265;SDS011;9259;48.194;16.322;2022-10-18T07:13:58;25.45;;;11.93;;
18265;SDS011;9259;48.194;16.322;2022-10-18T07:16:27;23.42;;;11.45;;
18265;SDS011;9259;48.194;16.322;2022-10-18T07:18:56;18.88;;;11.25;;
18265;SDS011;9259;48.194;16.322;2022-10-18T07:21:24;18.38;;;9.77;;
18265;SDS011;9259;48.194;16.322;2022-10-18T07:23:54;18.83;;;9.90;;
18265;SDS011;9259;48.194;16.322;2022-10-18T07:26:24;19.30;;;9.73;;
18265;SDS011;9259;48.194;16.322;2022-10-18T07:28:54;20.55;;;9.88;;
18265;SDS011;9259;48.194;16.322;2022-10-18T07:31:23;16.77;;;9.43;;
18265;SDS011;9259;48.194;16.322;2022-10-18T07:33:52;21.85;;;9.52;;
18265;SDS011;9259;48.194;16.322;2022-10-18T07:36:20;18.63;;;10.15;;
18265;SDS011;9259;48.194;16.322;2022-10-18T07:38:50;23.63;;;10.32;;
18265;SDS011;9259;48.194;16.322;2022-10-18T07:41:19;25.98;;;10.13;;
18265;SDS011;9259;48.194;16.322;2022-10-18T07:43:48;15.45;;;9.30;;
18265;SDS011;9259;48.194;16.322;2022-10-18T07:46:17;17.70;;;8.90;;
18265;SDS011;9259;48.194;16.322;2022-10-18T07:48:46;21.58;;;10.05;;
18265;SDS011;9259;48.194;16.322;2022-10-18T07:51:14;26.30;;;9.75;;
18265;SDS011;9259;48.194;16.322;2022-10-18T07:53:43;19.02;;;10.13;;
18265;SDS011;9259;48.194;16.322;2022-10-18T07:56:12;21.27;;;9.32;;
18265;SDS011;9259;48.194;16.322;2022-10-18T07:58:43;13.65;;;8.88;;
18265;SDS011;9259;48.194;16.322;2022-10-18T08:01:11;18.58;;;9.48;;
18265;SDS011;9259;48.194;16.322;2022-10-18T08:03:40;16.08;;;9.48;;
18265;SDS011;9259;48.194;16.322;2022-10-18T08:06:10;17.58;;;9.65;;
18265;SDS011;9259;48.194;16.322;2022-10-18T08:08:39;19.73;;;10.32;;
18265;SDS011;9259;48.194;16.322;2022-10-18T08:11:10;20.65;;;9.23;;
18265;SDS011;9259;48.194;16.322;2022-10-18T08:13:39;21.15;;;9.63;;
18265;SDS011;9259;48.194;16.322;2022-10-18T08:16:10;19.73;;;10.07;;
18265;SDS011;9259;48.194;16.322;2022-10-18T08:18:39;18.23;;;10.05;;
18265;SDS011;9259;48.194;16.322;2022-10-18T08:21:08;21.27;;;9.52;;
18265;SDS011;9259;48.194;16.322;2022-10-18T08:23:38;20.13;;;9.57;;
18265;SDS011;9259;48.194;16.322;2022-10-18T08:26:07;22.48;;;9.95;;
18265;SDS011;9259;48.194;16.322;2022-10-18T08:28:36;17.05;;;9.68;;
18265;SDS011;9259;48.194;16.322;2022-10-18T08:31:05;17.08;;;10.00;;
18265;SDS011;9259;48.194;16.322;2022-10-18T08:33:35;18.55;;;9.07;;
18265;SDS011;9259;48.194;16.322;2022-10-18T08:36:05;20.58;;;10.25;;
18265;SDS011;9259;48.194;16.322;2022-10-18T08:38:35;20.48;;;10.25;;
18265;SDS011;9259;48.194;16.322;2022-10-18T08:41:12;20.83;;;9.73;;
18265;SDS011;9259;48.194;16.322;2022-10-18T08:43:50;18.83;;;10.30;;
18265;SDS011;9259;48.194;16.322;2022-10-18T08:46:24;21.27;;;10.27;;
18265;SDS011;9259;48.194;16.322;2022-10-18T08:48:54;18.20;;;10.38;;
18265;SDS011;9259;48.194;16.322;2022-10-18T08:51:24;23.40;;;9.82;;
18265;SDS011;9259;48.194;16.322;2022-10-18T08:53:58;24.23;;;10.35;;
18265;SDS011;9259;48.194;16.322;2022-10-18T08:56:30;20.35;;;10.27;;
18265;SDS011;9259;48.194;16.322;2022-10-18T08:59:00;16.88;;;9.88;;
18265;SDS011;9259;48.194;16.322;2022-10-18T09:01:30;17.15;;;9.48;;
18265;SDS011;9259;48.194;16.322;2022-10-18T09:04:12;17.02;;;10.45;;
18265;SDS011;9259;48.194;16.322;2022-10-18T09:07:01;19.00;;;9.73;;
18265;SDS011;9259;48.194;16.322;2022-10-18T09:09:42;17.63;;;10.65;;
18265;SDS011;9259;48.194;16.322;2022-10-18T09:12:23;17.65;;;10.18;;
18265;SDS011;9259;48.194;16.322;2022-10-18T09:15:15;21.45;;;10.45;;
18265;SDS011;9259;48.194;16.322;2022-10-18T09:17:58;18.75;;;9.90;;
18265;SDS011;9259;48.194;16.322;2022-10-18T09:20:36;22.17;;;10.88;;
18265;SDS011;9259;48.194;16.322;2022-10-18T09:23:17;15.60;;;10.50;;
18265;SDS011;9259;48.194;16.322;2022-10-18T09:25:46;16.33;;;11.05;;
18265;SDS011;9259;48.194;16.322;2022-10-18T09:28:18;17.73;;;9.75;;
18265;SDS011;9259;48.194;16.322;2022-10-18T09:30:53;19.27;;;10.45;;
18265;SDS011;9259;48.194;16.322;2022-10-18T09:33:38;21.23;;;10.60;;
18265;SDS011;9259;48.194;16.322;2022-10-18T09:36:14;24.70;;;10.07;;
18265;SDS011;9259;48.194;16.322;2022-10-18T09:38:45;24.17;;;10.48;;
18265;SDS011;9259;48.194;16.322;2022-10-18T09:41:16;23.60;;;10.65;;
18265;SDS011;9259;48.194;16.322;2022-10-18T09:43:48;19.20;;;10.52;;
18265;SDS011;9259;48.194;16.322;2022-10-18T09:46:19;16.75;;;10.23;;
18265;SDS011;9259;48.194;16.322;2022-10-18T09:48:50;27.63;;;10.75;;
18265;SDS011;9259;48.194;16.322;2022-10-18T09:51:23;19.42;;;10.52;;
18265;SDS011;9259;48.194;16.322;2022-10-18T09:53:59;24.02;;;11.13;;
18265;SDS011;9259;48.194;16.322;2022-10-18T09:56:35;17.92;;;10.05;;
18265;SDS011;9259;48.194;16.322;2022-10-18T09:59:21;20.73;;;11.25;;
18265;SDS011;9259;48.194;16.322;2022-10-18T10:01:57;23.17;;;10.75;;
18265;SDS011;9259;48.194;16.322;2022-10-18T10:04:25;23.10;;;11.18;;
18265;SDS011;9259;48.194;16.322;2022-10-18T10:06:55;17.48;;;11.05;;
18265;SDS011;9259;48.194;16.322;2022-10-18T10:09:26;22.13;;;11.02;;
18265;SDS011;9259;48.194;16.322;2022-10-18T10:11:55;19.42;;;11.60;;
18265;SDS011;9259;48.194;16.322;2022-10-18T10:14:24;19.70;;;11.30;;
18265;SDS011;9259;48.194;16.322;2022-10-18T10:16:53;26.38;;;11.52;;
18265;SDS011;9259;48.194;16.322;2022-10-18T10:19:25;20.10;;;11.60;;
18265;SDS011;9259;48.194;16.322;2022-10-18T10:22:00;20.15;;;11.07;;
18265;SDS011;9259;48.194;16.322;2022-10-18T10:24:38;20.80;;;11.57;;
18265;SDS011;9259;48.194;16.322;2022-10-18T10:27:14;26.20;;;11.82;;
18265;SDS011;9259;48.194;16.322;2022-10-18T10:29:54;20.25;;;11.07;;
18265;SDS011;9259;48.194;16.322;2022-10-18T10:32:25;19.73;;;10.27;;
18265;SDS011;9259;48.194;16.322;2022-10-18T10:34:56;22.30;;;10.73;;
18265;SDS011;9259;48.194;16.322;2022-10-18T10:37:29;19.35;;;10.98;;
18265;SDS011;9259;48.194;16.322;2022-10-18T10:40:17;25.58;;;12.68;;
18265;SDS011;9259;48.194;16.322;2022-10-18T10:42:54;23.75;;;12.73;;
18265;SDS011;9259;48.194;16.322;2022-10-18T10:45:26;23.27;;;12.20;;
18265;SDS011;9259;48.194;16.322;2022-10-18T10:48:00;23.33;;;12.05;;
18265;SDS011;9259;48.194;16.322;2022-10-18T10:50:46;25.95;;;12.65;;
18265;SDS011;9259;48.194;16.322;2022-10-18T10:53:31;23.67;;;12.80;;
18265;SDS011;9259;48.194;16.322;2022-10-18T10:56:15;20.27;;;12.25;;
18265;SDS011;9259;48.194;16.322;2022-10-18T10:58:47;23.13;;;12.40;;
18265;SDS011;9259;48.194;16.322;2022-10-18T11:01:17;24.05;;;12.48;;
18265;SDS011;9259;48.194;16.322;2022-10-18T11:03:56;22.50;;;13.15;;
18265;SDS011;9259;48.194;16.322;2022-10-18T11:12:21;25.35;;;12.68;;
18265;SDS011;9259;48.194;16.322;2022-10-18T11:14:56;18.27;;;11.75;;
18265;SDS011;9259;48.194;16.322;2022-10-18T11:17:36;26.58;;;12.95;;
18265;SDS011;9259;48.194;16.322;2022-10-18T11:20:17;25.08;;;13.98;;
18265;SDS011;9259;48.194;16.322;2022-10-18T11:22:51;24.30;;;12.85;;
18265;SDS011;9259;48.194;16.322;2022-10-18T11:25:28;27.10;;;12.82;;
18265;SDS011;9259;48.194;16.322;2022-10-18T11:28:13;25.00;;;13.30;;
18265;SDS011;9259;48.194;16.322;2022-10-18T11:30:48;19.08;;;11.80;;
18265;SDS011;9259;48.194;16.322;2022-10-18T11:33:25;23.95;;;13.13;;
18265;SDS011;9259;48.194;16.322;2022-10-18T11:36:03;24.42;;;14.18;;
18265;SDS011;9259;48.194;16.322;2022-10-18T11:38:35;22.58;;;13.48;;
18265;SDS011;9259;48.194;16.322;2022-10-18T11:41:12;24.73;;;13.48;;
18265;SDS011;9259;48.194;16.322;2022-10-18T11:43:49;27.20;;;13.60;;
18265;SDS011;9259;48.194;16.322;2022-10-18T11:46:20;21.83;;;12.18;;
18265;SDS011;9259;48.194;16.322;2022-10-18T11:48:57;34.97;;;14.73;;
18265;SDS011;9259;48.194;16.322;2022-10-18T11:51:29;28.17;;;13.88;;
18265;SDS011;9259;48.194;16.322;2022-10-18T11:54:08;27.95;;;13.82;;
18265;SDS011;9259;48.194;16.322;2022-10-18T11:56:48;22.50;;;12.85;;
18265;SDS011;9259;48.194;16.322;2022-10-18T11:59:25;25.45;;;13.35;;
18265;SDS011;9259;48.194;16.322;2022-10-18T12:02:02;26.23;;;13.63;;
18265;SDS011;9259;48.194;16.322;2022-10-18T12:04:48;25.30;;;13.13;;
18265;SDS011;9259;48.194;16.322;2022-10-18T12:07:20;28.58;;;13.60;;
18265;SDS011;9259;48.194;16.322;2022-10-18T12:09:50;23.92;;;12.65;;
18265;SDS011;9259;48.194;16.322;2022-10-18T12:12:21;22.67;;;13.60;;
18265;SDS011;9259;48.194;16.322;2022-10-18T12:14:53;20.45;;;13.45;;
18265;SDS011;9259;48.194;16.322;2022-10-18T12:17:24;22.65;;;12.90;;
18265;SDS011;9259;48.194;16.322;2022-10-18T12:19:58;24.42;;;14.00;;
18265;SDS011;9259;48.194;16.322;2022-10-18T12:22:31;25.23;;;13.13;;
18265;SDS011;9259;48.194;16.322;2022-10-18T12:25:02;22.65;;;13.93;;
18265;SDS011;9259;48.194;16.322;2022-10-18T12:27:35;19.80;;;13.15;;
18265;SDS011;9259;48.194;16.322;2022-10-18T12:30:08;24.73;;;13.95;;
18265;SDS011;9259;48.194;16.322;2022-10-18T12:32:43;26.67;;;13.18;;
18265;SDS011;9259;48.194;16.322;2022-10-18T12:35:13;25.30;;;14.60;;
18265;SDS011;9259;48.194;16.322;2022-10-18T12:37:47;26.95;;;14.15;;
18265;SDS011;9259;48.194;16.322;2022-10-18T12:40:24;28.35;;;13.55;;
18265;SDS011;9259;48.194;16.322;2022-10-18T12:43:02;26.58;;;12.75;;
18265;SDS011;9259;48.194;16.322;2022-10-18T12:45:34;25.50;;;12.73;;
18265;SDS011;9259;48.194;16.322;2022-10-18T12:48:27;20.60;;;12.10;;
18265;SDS011;9259;48.194;16.322;2022-10-18T12:50:58;28.60;;;13.60;;
18265;SDS011;9259;48.194;16.322;2022-10-18T12:53:30;24.05;;;13.57;;
18265;SDS011;9259;48.194;16.322;2022-10-18T13:02:17;22.25;;;11.98;;
18265;SDS011;9259;48.194;16.322;2022-10-18T13:04:53;19.70;;;13.48;;
18265;SDS011;9259;48.194;16.322;2022-10-18T13:07:37;18.10;;;12.70;;
18265;SDS011;9259;48.194;16.322;2022-10-18T13:13:27;24.38;;;13.70;;
18265;SDS011;9259;48.194;16.322;2022-10-18T13:16:20;25.25;;;14.15;;
18265;SDS011;9259;48.194;16.322;2022-10-18T13:18:54;20.10;;;14.20;;
18265;SDS011;9259;48.194;16.322;2022-10-18T13:21:28;22.10;;;14.52;;
18265;SDS011;9259;48.194;16.322;2022-10-18T13:24:04;29.63;;;14.02;;
18265;SDS011;9259;48.194;16.322;2022-10-18T13:26:43;25.23;;;13.98;;
18265;SDS011;9259;48.194;16.322;2022-10-18T13:29:21;25.33;;;14.45;;
18265;SDS011;9259;48.194;16.322;2022-10-18T13:31:59;29.60;;;14.07;;
18265;SDS011;9259;48.194;16.322;2022-10-18T13:34:30;23.40;;;14.38;;
18265;SDS011;9259;48.194;16.322;2022-10-18T13:37:03;22.95;;;13.43;;
18265;SDS011;9259;48.194;16.322;2022-10-18T13:39:32;27.67;;;14.43;;
18265;SDS011;9259;48.194;16.322;2022-10-18T13:54:12;28.27;;;14.00;;
18265;SDS011;9259;48.194;16.322;2022-10-18T13:57:04;24.83;;;14.63;;
18265;SDS011;9259;48.194;16.322;2022-10-18T14:02:49;23.60;;;14.23;;
18265;SDS011;9259;48.194;16.322;2022-10-18T14:05:42;28.75;;;14.38;;
18265;SDS011;9259;48.194;16.322;2022-10-18T14:08:19;24.70;;;14.18;;
18265;SDS011;9259;48.194;16.322;2022-10-18T14:10:53;26.73;;;14.30;;
18265;SDS011;9259;48.194;16.322;2022-10-18T14:13:27;35.50;;;14.68;;
18265;SDS011;9259;48.194;16.322;2022-10-18T14:16:02;23.63;;;12.68;;
18265;SDS011;9259;48.194;16.322;2022-10-18T14:18:33;19.80;;;13.40;;
18265;SDS011;9259;48.194;16.322;2022-10-18T14:21:06;30.48;;;14.30;;
18265;SDS011;9259;48.194;16.322;2022-10-18T14:23:39;23.25;;;13.45;;
18265;SDS011;9259;48.194;16.322;2022-10-18T14:26:11;23.20;;;13.85;;
18265;SDS011;9259;48.194;16.322;2022-10-18T14:28:40;28.52;;;14.20;;
18265;SDS011;9259;48.194;16.322;2022-10-18T14:31:11;28.02;;;14.98;;
18265;SDS011;9259;48.194;16.322;2022-10-18T14:33:40;27.30;;;13.73;;
18265;SDS011;9259;48.194;16.322;2022-10-18T14:36:11;22.45;;;12.95;;
18265;SDS011;9259;48.194;16.322;2022-10-18T14:38:45;25.35;;;13.43;;
18265;SDS011;9259;48.194;16.322;2022-10-18T14:41:15;25.85;;;13.68;;
18265;SDS011;9259;48.194;16.322;2022-10-18T14:43:46;26.98;;;14.32;;
18265;SDS011;9259;48.194;16.322;2022-10-18T14:46:18;27.88;;;13.82;;
18265;SDS011;9259;48.194;16.322;2022-10-18T14:48:51;21.98;;;13.02;;
18265;SDS011;9259;48.194;16.322;2022-10-18T14:51:22;29.77;;;14.15;;
18265;SDS011;9259;48.194;16.322;2022-10-18T14:53:50;29.75;;;13.88;;
18265;SDS011;9259;48.194;16.322;2022-10-18T14:56:20;22.50;;;14.15;;
18265;SDS011;9259;48.194;16.322;2022-10-18T14:58:50;24.83;;;13.85;;
18265;SDS011;9259;48.194;16.322;2022-10-18T15:01:19;24.58;;;13.40;;
18265;SDS011;9259;48.194;16.322;2022-10-18T15:03:49;26.42;;;14.43;;
18265;SDS011;9259;48.194;16.322;2022-10-18T15:06:19;27.50;;;14.10;;
18265;SDS011;9259;48.194;16.322;2022-10-18T15:08:50;21.80;;;13.13;;
18265;SDS011;9259;48.194;16.322;2022-10-18T15:11:20;25.83;;;13.35;;
18265;SDS011;9259;48.194;16.322;2022-10-18T15:13:49;22.15;;;12.88;;
18265;SDS011;9259;48.194;16.322;2022-10-18T15:16:20;18.20;;;11.60;;
18265;SDS011;9259;48.194;16.322;2022-10-18T15:18:59;25.30;;;11.95;;
18265;SDS011;9259;48.194;16.322;2022-10-18T15:21:30;23.75;;;13.23;;
18265;SDS011;9259;48.194;16.322;2022-10-18T15:24:17;22.38;;;13.13;;
18265;SDS011;9259;48.194;16.322;2022-10-18T15:26:46;22.60;;;12.30;;
18265;SDS011;9259;48.194;16.322;2022-10-18T15:29:15;23.08;;;13.32;;